createdAt,value
2023-04-01T00:01:48.510Z,97632.91
2023-04-01T00:04:16.680Z,97633.63
2023-04-01T00:06:43.547Z,97636.91
2023-04-01T00:09:10.375Z,97640.56
2023-04-01T00:11:37.188Z,97635.59
2023-04-01T00:14:04.000Z,97627.56
2023-04-01T00:16:31.299Z,97633.97
2023-04-01T00:18:58.206Z,97645.56
2023-04-01T00:21:25.082Z,97628.56
2023-04-01T00:23:52.352Z,97628.75
2023-04-01T00:26:22.043Z,97623.78
2023-04-01T00:28:49.699Z,97620.06
2023-04-01T00:31:16.583Z,97630.22
2023-04-01T00:33:44.438Z,97628.97
2023-04-01T00:36:14.970Z,97631.28
2023-04-01T00:38:43.324Z,97634.66
2023-04-01T00:41:15.377Z,97627.34
2023-04-01T00:43:48.997Z,97633.34
2023-04-01T00:46:16.246Z,97634.88
2023-04-01T00:48:53.342Z,97634.47
2023-04-01T00:51:26.829Z,97648.84
2023-04-01T00:53:57.007Z,97661.09
2023-04-01T00:56:57.258Z,97649.28
2023-04-01T00:59:32.507Z,97652.09
2023-04-01T01:01:59.422Z,97651.66
2023-04-01T01:04:33.012Z,97657.56
2023-04-01T01:07:20.856Z,97646.47
2023-04-01T01:10:09.990Z,97649.06
2023-04-01T01:12:46.328Z,97644.84
2023-04-01T01:15:39.042Z,97625.06
2023-04-01T01:18:17.602Z,97640.88
2023-04-01T01:21:12.893Z,97637.56
2023-04-01T01:24:13.242Z,97645.56
2023-04-01T01:26:58.011Z,97644.72
2023-04-01T01:30:01.210Z,97644.94
2023-04-01T01:33:32.926Z,97650.00
2023-04-01T01:36:03.720Z,97638.31
2023-04-01T01:38:35.039Z,97643.47
2023-04-01T01:41:05.068Z,97639.97
2023-04-01T01:43:40.920Z,97644.00
2023-04-01T01:46:13.692Z,97633.34
2023-04-01T01:48:43.985Z,97647.03
2023-04-01T01:51:12.920Z,97642.16
2023-04-01T01:53:40.321Z,97642.47
2023-04-01T01:56:08.096Z,97646.41
2023-04-01T01:58:45.884Z,97634.16
2023-04-01T02:01:21.893Z,97632.72
2023-04-01T02:03:49.828Z,97645.22
2023-04-01T02:06:23.372Z,97640.09
2023-04-01T02:08:55.596Z,97631.88
2023-04-01T02:11:52.174Z,97645.16
2023-04-01T02:14:29.452Z,97645.38
2023-04-01T02:17:14.394Z,97649.59
2023-04-01T02:19:57.604Z,97655.50
2023-04-01T02:22:35.283Z,97653.97
2023-04-01T02:25:16.121Z,97643.06
2023-04-01T02:27:45.855Z,97647.94
2023-04-01T02:30:17.905Z,97657.75
2023-04-01T02:32:45.611Z,97657.38
2023-04-01T02:35:16.333Z,97660.06
2023-04-01T02:37:49.938Z,97635.44
2023-04-01T02:40:17.713Z,97659.97
2023-04-01T02:42:45.371Z,97652.81
2023-04-01T02:45:13.474Z,97654.78
2023-04-01T02:47:40.486Z,97658.31
2023-04-01T02:50:08.488Z,97651.28
2023-04-01T02:52:35.640Z,97641.63
2023-04-01T02:55:03.598Z,97649.81
2023-04-01T02:57:30.594Z,97649.09
2023-04-01T02:59:57.476Z,97638.09
2023-04-01T03:02:24.384Z,97643.69
2023-04-01T03:04:51.248Z,97636.25
2023-04-01T03:07:18.123Z,97645.34
2023-04-01T03:09:44.950Z,97639.34
2023-04-01T03:12:11.780Z,97636.03
2023-04-01T03:14:38.676Z,97651.13
2023-04-01T03:17:06.540Z,97625.16
2023-04-01T03:19:33.328Z,97648.84
2023-04-01T03:22:00.179Z,97632.41
2023-04-01T03:24:27.058Z,97645.03
2023-04-01T03:26:54.029Z,97650.72
2023-04-01T03:29:20.920Z,97645.88
2023-04-01T03:31:47.762Z,97642.78
2023-04-01T03:34:14.949Z,97647.22
2023-04-01T03:36:41.764Z,97658.19
2023-04-01T03:39:08.743Z,97657.75
2023-04-01T03:41:38.599Z,97661.09
2023-04-01T03:44:05.405Z,97656.13
2023-04-01T03:46:32.297Z,97654.28
2023-04-01T03:48:59.319Z,97667.50
2023-04-01T03:51:26.758Z,97663.88
2023-04-01T03:53:53.642Z,97651.34
2023-04-01T03:56:20.534Z,97647.84
2023-04-01T03:58:47.444Z,97647.63
2023-04-01T04:01:21.814Z,97652.19
2023-04-01T04:03:50.678Z,97645.34
2023-04-01T04:06:19.461Z,97648.56
2023-04-01T04:08:46.576Z,97627.78
2023-04-01T04:11:13.576Z,97636.16
2023-04-01T04:13:40.684Z,97631.16
2023-04-01T04:16:08.245Z,97639.88
2023-04-01T04:18:35.721Z,97628.16
2023-04-01T04:21:03.228Z,97634.81
2023-04-01T04:23:31.460Z,97638.22
2023-04-01T04:26:14.810Z,97639.94
2023-04-01T04:28:41.937Z,97645.34
2023-04-01T04:31:08.960Z,97639.13
2023-04-01T04:33:36.553Z,97628.88
2023-04-01T04:36:05.025Z,97633.66
2023-04-01T04:38:32.546Z,97632.72
2023-04-01T04:40:59.448Z,97638.09
2023-04-01T04:43:26.340Z,97615.13
2023-04-01T04:45:53.174Z,97613.78
2023-04-01T04:48:21.231Z,97630.56
2023-04-01T04:50:50.093Z,97634.16
2023-04-01T04:53:19.818Z,97630.34
2023-04-01T04:55:51.195Z,97616.06
2023-04-01T04:58:19.096Z,97630.03
2023-04-01T05:00:46.459Z,97630.03
2023-04-01T05:03:14.445Z,97628.56
2023-04-01T05:05:54.077Z,97621.66
2023-04-01T05:08:21.084Z,97620.72
2023-04-01T05:10:48.153Z,97624.22
2023-04-01T05:13:14.990Z,97622.44
2023-04-01T05:15:42.106Z,97632.91
2023-04-01T05:18:09.025Z,97627.31
2023-04-01T05:20:35.881Z,97628.72
2023-04-01T05:23:03.668Z,97614.16
2023-04-01T05:25:30.681Z,97623.22
2023-04-01T05:27:57.762Z,97615.69
2023-04-01T05:30:24.556Z,97598.19
2023-04-01T05:32:51.496Z,97598.22
2023-04-01T05:35:18.358Z,97616.53
2023-04-01T05:37:45.278Z,97599.34
2023-04-01T05:40:12.470Z,97591.56
2023-04-01T05:42:39.435Z,97607.72
2023-04-01T05:45:07.201Z,97599.44
2023-04-01T05:47:34.075Z,97617.16
2023-04-01T05:50:01.232Z,97607.19
2023-04-01T05:52:28.182Z,97605.00
2023-04-01T05:54:55.076Z,97589.63
2023-04-01T05:57:22.252Z,97601.84
2023-04-01T05:59:49.139Z,97600.50
2023-04-01T06:02:19.581Z,97599.41
2023-04-01T06:04:47.066Z,97607.03
2023-04-01T06:07:19.320Z,97618.94
2023-04-01T06:09:46.391Z,97607.78
2023-04-01T06:12:43.722Z,97598.16
2023-04-01T06:15:22.013Z,97603.84
2023-04-01T06:18:41.815Z,97599.81
2023-04-01T06:21:25.173Z,97583.88
2023-04-01T06:24:37.355Z,97592.78
2023-04-01T06:27:38.066Z,97597.44
2023-04-01T06:30:50.879Z,97594.47
2023-04-01T06:33:55.231Z,97601.69
2023-04-01T06:36:43.664Z,97603.44
2023-04-01T06:39:37.853Z,97598.25
2023-04-01T06:42:35.061Z,97597.34
2023-04-01T06:45:38.257Z,97599.63
2023-04-01T06:48:25.995Z,97589.47
2023-04-01T06:51:21.974Z,97597.13
2023-04-01T06:54:11.884Z,97606.47
2023-04-01T06:56:43.681Z,97606.53
2023-04-01T06:59:29.009Z,97610.59
2023-04-01T07:02:07.128Z,97584.28
2023-04-01T07:04:43.270Z,97589.47
2023-04-01T07:07:30.546Z,97595.28
2023-04-01T07:10:00.805Z,97600.03
2023-04-01T07:12:34.965Z,97604.81
2023-04-01T07:15:32.410Z,97593.22
2023-04-01T07:18:11.112Z,97594.84
2023-04-01T07:20:39.400Z,97590.28
2023-04-01T07:23:17.983Z,97592.56
2023-04-01T07:25:54.119Z,97597.03
2023-04-01T07:28:21.027Z,97602.91
2023-04-01T07:31:17.165Z,97596.72
2023-04-01T07:33:56.959Z,97598.78
2023-04-01T07:36:33.450Z,97610.69
2023-04-01T07:39:36.854Z,97605.00
2023-04-01T07:42:28.889Z,97576.00
2023-04-01T07:45:10.752Z,97601.88
2023-04-01T07:48:21.327Z,97600.44
2023-04-01T07:51:09.438Z,97598.84
2023-04-01T07:54:03.497Z,97607.88
2023-04-01T07:56:56.284Z,97593.19
2023-04-01T07:59:52.904Z,97599.38
2023-04-01T08:03:18.256Z,97610.56
2023-04-01T08:06:28.298Z,97600.00
2023-04-01T08:09:18.517Z,97609.00
2023-04-01T08:12:02.757Z,97603.94
2023-04-01T08:15:22.861Z,97608.09
2023-04-01T08:18:01.160Z,97608.38
2023-04-01T08:20:34.417Z,97610.00
2023-04-01T08:23:15.114Z,97613.31
2023-04-01T08:25:52.066Z,97610.22
2023-04-01T08:28:35.209Z,97615.91
2023-04-01T08:31:11.688Z,97612.72
2023-04-01T08:33:40.940Z,97610.75
2023-04-01T08:36:28.243Z,97623.38
2023-04-01T08:39:20.194Z,97623.38
2023-04-01T08:41:52.786Z,97615.50
2023-04-01T08:44:38.025Z,97613.53
2023-04-01T08:47:10.737Z,97625.44
2023-04-01T08:49:58.964Z,97629.59
2023-04-01T08:52:59.759Z,97621.59
2023-04-01T08:55:45.311Z,97622.31
2023-04-01T08:58:44.173Z,97623.16
2023-04-01T09:01:33.847Z,97627.28
2023-04-01T09:04:26.366Z,97638.06
2023-04-01T09:07:28.335Z,97621.94
2023-04-01T09:10:30.935Z,97621.09
2023-04-01T09:13:10.451Z,97624.53
2023-04-01T09:16:14.414Z,97617.50
2023-04-01T09:19:15.399Z,97615.34
2023-04-01T09:22:14.594Z,97620.81
2023-04-01T09:25:22.528Z,97639.66
2023-04-01T09:28:15.414Z,97624.19
2023-04-01T09:31:06.845Z,97632.41
2023-04-01T09:34:05.397Z,97612.81
2023-04-01T09:36:46.825Z,97614.88
2023-04-01T09:39:44.824Z,97629.81
2023-04-01T09:42:14.502Z,97634.03
2023-04-01T09:45:00.535Z,97650.81
2023-04-01T09:48:14.448Z,97671.13
2023-04-01T09:50:59.151Z,97631.50
2023-04-01T09:54:02.451Z,97659.81
2023-04-01T09:57:01.497Z,97658.19
2023-04-01T10:00:01.779Z,97657.25
2023-04-01T10:03:15.551Z,97667.50
2023-04-01T10:06:33.602Z,97660.47
2023-04-01T10:09:27.992Z,97658.00
2023-04-01T10:12:24.285Z,97664.63
2023-04-01T10:15:09.922Z,97661.59
2023-04-01T10:18:11.752Z,97647.34
2023-04-01T10:21:22.365Z,97642.56
2023-04-01T10:24:37.347Z,97651.56
2023-04-01T10:27:36.448Z,97651.13
2023-04-01T10:30:25.442Z,97667.41
2023-04-01T10:33:42.623Z,97670.09
2023-04-01T10:36:56.913Z,97659.53
2023-04-01T10:39:35.876Z,97648.44
2023-04-01T10:42:54.735Z,97665.94
2023-04-01T10:45:52.616Z,97668.13
2023-04-01T10:48:32.882Z,97666.44
2023-04-01T10:51:31.965Z,97672.88
2023-04-01T10:54:14.040Z,97678.88
2023-04-01T10:57:20.558Z,97662.94
2023-04-01T11:00:18.509Z,97653.63
2023-04-01T11:03:22.966Z,97663.75
2023-04-01T11:06:42.722Z,97666.22
2023-04-01T11:10:00.739Z,97668.09
2023-04-01T11:12:55.460Z,97669.72
2023-04-01T11:16:00.263Z,97681.97
2023-04-01T11:18:36.217Z,97661.25
2023-04-01T11:21:39.887Z,97668.59
2023-04-01T11:24:27.019Z,97661.03
2023-04-01T11:27:30.507Z,97679.91
2023-04-01T11:30:31.236Z,97659.88
2023-04-01T11:33:27.026Z,97670.56
2023-04-01T11:36:24.105Z,97669.81
2023-04-01T11:39:22.890Z,97665.44
2023-04-01T11:42:16.627Z,97670.09
2023-04-01T11:45:02.249Z,97680.25
2023-04-01T11:47:58.744Z,97664.31
2023-04-01T11:50:54.621Z,97705.00
2023-04-01T11:54:14.199Z,97693.50
2023-04-01T11:57:05.518Z,97681.47
2023-04-01T12:00:20.332Z,97685.41
2023-04-01T12:03:30.780Z,97694.94
2023-04-01T12:06:38.838Z,97696.00
2023-04-01T12:09:29.635Z,97700.34
2023-04-01T12:12:50.752Z,97671.66
2023-04-01T12:15:58.896Z,97697.41
2023-04-01T12:18:49.372Z,97689.13
2023-04-01T12:21:39.971Z,97699.69
2023-04-01T12:24:09.460Z,97704.88
2023-04-01T12:27:07.308Z,97690.59
2023-04-01T12:30:15.408Z,97696.81
2023-04-01T12:33:30.841Z,97695.16
2023-04-01T12:36:09.476Z,97715.56
2023-04-01T12:39:12.772Z,97718.56
2023-04-01T12:42:06.495Z,97711.53
2023-04-01T12:44:57.374Z,97704.47
2023-04-01T12:47:52.323Z,97699.78
2023-04-01T12:50:40.649Z,97724.50
2023-04-01T12:53:07.318Z,97704.47
2023-04-01T12:55:45.760Z,97696.03
2023-04-01T12:58:50.230Z,97699.13
2023-04-01T13:02:19.962Z,97706.53
2023-04-01T13:04:58.345Z,97714.19
2023-04-01T13:07:47.740Z,97749.94
2023-04-01T13:10:40.777Z,97705.75
2023-04-01T13:13:42.294Z,97710.47
2023-04-01T13:16:11.823Z,97712.47
2023-04-01T13:19:09.478Z,97711.69
2023-04-01T13:22:01.133Z,97716.41
2023-04-01T13:25:07.552Z,97717.13
2023-04-01T13:28:01.533Z,97723.22
2023-04-01T13:30:46.932Z,97725.81
2023-04-01T13:33:45.524Z,97724.69
2023-04-01T13:36:29.843Z,97731.75
2023-04-01T13:39:19.858Z,97726.91
2023-04-01T13:42:00.415Z,97729.25
2023-04-01T13:44:38.681Z,97723.47
2023-04-01T13:47:18.985Z,97731.13
2023-04-01T13:49:58.919Z,97727.84
2023-04-01T13:52:39.074Z,97698.63
2023-04-01T13:55:35.869Z,97745.00
2023-04-01T13:58:05.353Z,97747.59
2023-04-01T14:01:39.329Z,97741.47
2023-04-01T14:04:22.442Z,97745.94
2023-04-01T14:07:09.446Z,97737.91
2023-04-01T14:10:15.568Z,97732.16
2023-04-01T14:13:06.631Z,97744.56
2023-04-01T14:16:06.548Z,97746.72
2023-04-01T14:19:20.103Z,97745.03
2023-04-01T14:22:36.772Z,97746.41
2023-04-01T14:25:22.730Z,97744.00
2023-04-01T14:28:20.281Z,97747.66
2023-04-01T14:31:32.243Z,97741.25
2023-04-01T14:34:26.025Z,97742.91
2023-04-01T14:37:18.207Z,97752.22
2023-04-01T14:40:22.076Z,97753.31
2023-04-01T14:43:06.879Z,97762.31
2023-04-01T14:46:01.182Z,97748.38
2023-04-01T14:48:57.312Z,97749.09
2023-04-01T14:51:40.884Z,97762.47
2023-04-01T14:54:31.325Z,97761.44
2023-04-01T14:57:25.155Z,97760.50
2023-04-01T15:00:10.244Z,97761.72
2023-04-01T15:03:00.922Z,97763.53
2023-04-01T15:05:41.282Z,97762.81
2023-04-01T15:08:18.453Z,97770.50
2023-04-01T15:11:10.319Z,97752.44
2023-04-01T15:13:51.144Z,97749.34
2023-04-01T15:16:53.059Z,97759.72
2023-04-01T15:19:57.436Z,97762.22
2023-04-01T15:22:46.745Z,97774.44
2023-04-01T15:25:40.794Z,97781.63
2023-04-01T15:28:24.775Z,97768.66
2023-04-01T15:31:06.207Z,97775.28
2023-04-01T15:34:10.542Z,97788.47
2023-04-01T15:36:44.223Z,97784.09
2023-04-01T15:39:20.026Z,97789.22
2023-04-01T15:42:07.408Z,97790.09
2023-04-01T15:44:56.536Z,97800.34
2023-04-01T15:47:26.487Z,97787.91
2023-04-01T15:50:30.598Z,97787.72
2023-04-01T15:53:16.637Z,97794.56
2023-04-01T15:55:59.139Z,97797.50
2023-04-01T15:58:47.089Z,97793.34
2023-04-01T16:01:41.525Z,97791.88
2023-04-01T16:04:36.896Z,97803.47
2023-04-01T16:07:50.321Z,97805.03
2023-04-01T16:10:48.812Z,97812.22
2023-04-01T16:13:47.125Z,97807.03
2023-04-01T16:16:47.523Z,97807.44
2023-04-01T16:19:49.907Z,97812.22
2023-04-01T16:22:39.628Z,97814.31
2023-04-01T16:25:22.226Z,97809.84
2023-04-01T16:28:15.086Z,97817.19
2023-04-01T16:31:26.380Z,97819.00
2023-04-01T16:33:59.930Z,97822.31
2023-04-01T16:36:37.586Z,97819.38
2023-04-01T16:39:44.133Z,97818.03
2023-04-01T16:42:25.568Z,97820.72
2023-04-01T16:45:07.513Z,97820.72
2023-04-01T16:47:42.250Z,97819.28
2023-04-01T16:50:27.363Z,97817.75
2023-04-01T16:53:09.466Z,97812.22
2023-04-01T16:55:57.840Z,97801.75
2023-04-01T16:58:34.061Z,97827.06
2023-04-01T17:01:13.557Z,97822.38
2023-04-01T17:03:46.729Z,97826.81
2023-04-01T17:06:38.605Z,97831.47
2023-04-01T17:09:36.444Z,97832.31
2023-04-01T17:12:22.019Z,97837.59
2023-04-01T17:15:10.480Z,97810.75
2023-04-01T17:18:04.922Z,97833.56
2023-04-01T17:21:07.851Z,97832.13
2023-04-01T17:24:03.538Z,97833.88
2023-04-01T17:27:07.634Z,97839.78
2023-04-01T17:30:11.571Z,97841.88
2023-04-01T17:33:21.445Z,97848.53
2023-04-01T17:36:16.944Z,97850.16
2023-04-01T17:39:35.934Z,97855.56
2023-04-01T17:42:10.425Z,97855.81
2023-04-01T17:44:53.616Z,97854.34
2023-04-01T17:47:42.924Z,97865.13
2023-04-01T17:50:24.591Z,97854.78
2023-04-01T17:53:03.660Z,97864.50
2023-04-01T17:55:33.454Z,97863.88
2023-04-01T17:58:21.779Z,97867.31
2023-04-01T18:01:15.236Z,97870.84
2023-04-01T18:04:10.369Z,97876.78
2023-04-01T18:07:24.732Z,97872.91
2023-04-01T18:10:18.328Z,97883.59
2023-04-01T18:13:10.759Z,97871.38
2023-04-01T18:16:24.134Z,97887.84
2023-04-01T18:19:10.907Z,97900.00
2023-04-01T18:21:49.368Z,97891.59
2023-04-01T18:24:37.683Z,97895.84
2023-04-01T18:27:17.394Z,97902.16
2023-04-01T18:29:58.170Z,97912.97
2023-04-01T18:32:58.993Z,97918.97
2023-04-01T18:36:22.781Z,97934.84
2023-04-01T18:39:01.643Z,97936.31
2023-04-01T18:42:25.073Z,97942.31
2023-04-01T18:45:03.272Z,97947.41
2023-04-01T18:48:00.407Z,97956.00
2023-04-01T18:50:45.221Z,97936.94
2023-04-01T18:53:35.043Z,97958.06
2023-04-01T18:56:41.442Z,97959.94
2023-04-01T18:59:35.944Z,97951.66
2023-04-01T19:02:29.740Z,97951.34
2023-04-01T19:05:18.239Z,97962.63
2023-04-01T19:07:53.445Z,97963.88
2023-04-01T19:10:55.316Z,97957.13
2023-04-01T19:13:52.222Z,97968.47
2023-04-01T19:16:47.548Z,97963.06
2023-04-01T19:19:57.389Z,97960.47
2023-04-01T19:22:57.077Z,97959.50
2023-04-01T19:25:56.399Z,97964.53
2023-04-01T19:28:56.484Z,97971.88
2023-04-01T19:31:54.037Z,97977.34
2023-04-01T19:34:48.224Z,97985.25
2023-04-01T19:37:31.617Z,97981.47
2023-04-01T19:40:32.728Z,97983.59
2023-04-01T19:43:14.420Z,97981.09
2023-04-01T19:45:56.308Z,97979.72
2023-04-01T19:49:18.938Z,97982.03
2023-04-01T19:51:53.709Z,97975.91
2023-04-01T19:54:46.727Z,97976.06
2023-04-01T19:57:42.269Z,97984.59
2023-04-01T20:00:36.053Z,97991.72
2023-04-01T20:03:22.517Z,97999.88
2023-04-01T20:06:17.820Z,97999.03
2023-04-01T20:09:37.568Z,98002.78
2023-04-01T20:12:32.477Z,98007.59
2023-04-01T20:15:05.228Z,98013.78
2023-04-01T20:17:38.189Z,98026.25
2023-04-01T20:20:09.262Z,98030.06
2023-04-01T20:22:44.826Z,98036.31
2023-04-01T20:25:30.539Z,98031.50
2023-04-01T20:28:12.714Z,98018.69
2023-04-01T20:31:00.654Z,98025.25
2023-04-01T20:34:07.811Z,98032.06
2023-04-01T20:37:17.137Z,98030.34
2023-04-01T20:39:47.048Z,98043.63
2023-04-01T20:42:41.011Z,98035.97
2023-04-01T20:45:29.029Z,98042.41
2023-04-01T20:48:40.423Z,98032.25
2023-04-01T20:51:14.845Z,98040.25
2023-04-01T20:54:06.753Z,98045.81
2023-04-01T20:56:48.544Z,98041.47
2023-04-01T20:59:37.026Z,98037.97
2023-04-01T21:02:17.229Z,98045.13
2023-04-01T21:04:54.802Z,98048.34
2023-04-01T21:07:55.451Z,98014.66
2023-04-01T21:10:33.492Z,98050.41
2023-04-01T21:13:21.518Z,98053.06
2023-04-01T21:16:13.146Z,98047.84
2023-04-01T21:19:31.824Z,98061.97
2023-04-01T21:22:42.086Z,98070.47
2023-04-01T21:25:31.363Z,98053.03
2023-04-01T21:28:36.897Z,98046.00
2023-04-01T21:31:41.588Z,98069.53
2023-04-01T21:34:38.735Z,98069.22
2023-04-01T21:37:42.415Z,98073.19
2023-04-01T21:40:56.647Z,98066.16
2023-04-01T21:44:04.749Z,98066.75
2023-04-01T21:47:34.784Z,98067.38
2023-04-01T21:50:46.064Z,98067.38
2023-04-01T21:53:50.668Z,98064.13
2023-04-01T21:56:43.608Z,98085.38
2023-04-01T21:59:28.273Z,98088.88
2023-04-01T22:02:39.279Z,98094.72
2023-04-01T22:05:27.202Z,98095.66
2023-04-01T22:07:59.448Z,98072.97
2023-04-01T22:10:59.834Z,98102.69
2023-04-01T22:13:34.240Z,98106.22
2023-04-01T22:16:48.335Z,98109.38
2023-04-01T22:20:10.229Z,98112.50
2023-04-01T22:23:07.711Z,98110.41
2023-04-01T22:25:37.391Z,98110.75
2023-04-01T22:28:30.874Z,98104.94
2023-04-01T22:31:02.103Z,98119.16
2023-04-01T22:33:46.991Z,98118.78
2023-04-01T22:36:32.214Z,98116.84
2023-04-01T22:39:37.357Z,98103.44
2023-04-01T22:42:33.520Z,98119.81
2023-04-01T22:45:33.245Z,98115.84
2023-04-01T22:48:22.157Z,98118.97
2023-04-01T22:51:21.877Z,98114.84
2023-04-01T22:54:12.820Z,98117.59
2023-04-01T22:57:34.870Z,98131.28
2023-04-01T23:00:21.551Z,98122.41
2023-04-01T23:03:16.468Z,98129.97
2023-04-01T23:05:53.947Z,98129.97
2023-04-01T23:08:55.001Z,98140.06
2023-04-01T23:11:38.664Z,98148.75
2023-04-01T23:14:27.771Z,98151.31
2023-04-01T23:17:04.880Z,98153.19
2023-04-01T23:20:09.668Z,98156.59
2023-04-01T23:23:06.933Z,98150.63
2023-04-01T23:26:16.558Z,98164.47
2023-04-01T23:28:55.540Z,98161.13
2023-04-01T23:31:43.750Z,98163.81
2023-04-01T23:34:27.330Z,98173.50
2023-04-01T23:37:05.359Z,98176.13
2023-04-01T23:39:44.756Z,98173.88
2023-04-01T23:42:22.961Z,98166.13
2023-04-01T23:44:52.922Z,98177.69
2023-04-01T23:47:28.508Z,98169.28
2023-04-01T23:50:04.624Z,98181.50
2023-04-01T23:52:37.781Z,98176.41
2023-04-01T23:55:27.064Z,98167.41
2023-04-01T23:58:17.751Z,98179.81
